createdAt,value
2019-03-10T00:01:11.803Z,2.00
2019-03-10T00:05:17.510Z,1.33
2019-03-10T00:09:23.196Z,1.73
2019-03-10T00:13:29.283Z,1.40
2019-03-10T00:17:34.963Z,3.57
2019-03-10T00:21:40.660Z,2.00
2019-03-10T00:25:46.460Z,1.40
2019-03-10T00:29:52.153Z,1.37
2019-03-10T00:33:57.831Z,5.20
2019-03-10T00:38:03.627Z,2.25
2019-03-10T00:42:34.070Z,1.80
2019-03-10T00:47:08.225Z,1.20
2019-03-10T00:51:30.469Z,1.67
2019-03-10T00:55:36.206Z,1.50
2019-03-10T00:59:41.868Z,2.27
2019-03-10T01:03:47.577Z,1.40
2019-03-10T01:07:53.343Z,1.30
2019-03-10T01:11:59.342Z,1.00
2019-03-10T01:16:05.218Z,1.87
2019-03-10T01:20:13.081Z,2.37
2019-03-10T01:24:18.835Z,1.20
2019-03-10T01:28:24.574Z,1.62
2019-03-10T01:33:18.112Z,1.23
2019-03-10T01:37:23.792Z,1.47
2019-03-10T01:41:29.483Z,1.00
2019-03-10T01:45:35.174Z,1.10
2019-03-10T01:49:40.866Z,1.10
2019-03-10T01:53:46.614Z,2.00
2019-03-10T01:57:52.306Z,1.93
2019-03-10T02:01:58.000Z,1.10
2019-03-10T02:06:03.778Z,1.10
2019-03-10T02:10:13.469Z,2.23
2019-03-10T02:14:19.154Z,1.23
2019-03-10T02:18:24.835Z,1.30
2019-03-10T02:22:30.536Z,1.80
2019-03-10T02:26:36.223Z,0.90
2019-03-10T02:30:41.921Z,1.30
2019-03-10T02:34:47.595Z,1.03
2019-03-10T02:38:53.373Z,1.23
2019-03-10T02:42:59.118Z,1.60
2019-03-10T02:47:04.875Z,1.53
2019-03-10T02:51:10.564Z,1.30
2019-03-10T02:55:16.343Z,0.80
2019-03-10T02:59:22.017Z,1.03
2019-03-10T03:03:27.717Z,1.10
2019-03-10T03:07:33.404Z,2.43
2019-03-10T03:11:39.113Z,1.27
2019-03-10T03:15:44.794Z,1.10
2019-03-10T03:19:50.493Z,1.20
2019-03-10T03:23:56.173Z,1.13
2019-03-10T03:28:01.897Z,0.80
2019-03-10T03:32:07.603Z,0.73
2019-03-10T03:36:26.895Z,1.73
2019-03-10T03:40:33.420Z,1.10
2019-03-10T03:44:39.103Z,1.83
2019-03-10T03:48:44.835Z,1.30
2019-03-10T03:52:50.495Z,0.80
2019-03-10T03:56:56.264Z,0.60
2019-03-10T04:01:05.101Z,0.60
2019-03-10T04:05:11.554Z,1.80
2019-03-10T04:09:17.308Z,0.37
2019-03-10T04:13:23.074Z,1.37
2019-03-10T04:17:28.780Z,1.03
2019-03-10T04:21:34.477Z,0.50
2019-03-10T04:25:40.238Z,0.70
2019-03-10T04:29:45.932Z,0.60
2019-03-10T04:33:53.316Z,0.60
2019-03-10T04:37:59.010Z,0.70
2019-03-10T04:42:04.689Z,0.80
2019-03-10T04:46:13.546Z,1.40
2019-03-10T04:50:17.778Z,1.33
2019-03-10T04:54:25.108Z,0.53
2019-03-10T04:58:31.859Z,0.30
2019-03-10T05:02:37.572Z,1.37
2019-03-10T05:06:43.272Z,0.37
2019-03-10T05:10:48.979Z,1.40
2019-03-10T05:14:54.662Z,0.47
2019-03-10T05:19:00.327Z,0.93
2019-03-10T05:23:32.162Z,1.10
2019-03-10T05:27:37.856Z,1.07
2019-03-10T05:31:43.550Z,2.20
2019-03-10T05:35:49.256Z,0.70
2019-03-10T05:39:54.922Z,0.50
2019-03-10T05:44:01.593Z,0.87
2019-03-10T05:48:07.350Z,1.57
2019-03-10T05:52:13.025Z,0.63
2019-03-10T05:56:18.785Z,0.67
2019-03-10T06:00:24.465Z,0.83
2019-03-10T06:04:30.147Z,1.87
2019-03-10T06:08:35.847Z,0.73
2019-03-10T06:12:41.559Z,0.60
2019-03-10T06:16:47.257Z,6.73
2019-03-10T06:20:52.951Z,3.50
2019-03-10T06:24:58.647Z,6.87
2019-03-10T06:29:04.458Z,2.47
2019-03-10T06:33:10.141Z,2.17
2019-03-10T06:37:15.832Z,0.80
2019-03-10T06:41:21.520Z,0.70
2019-03-10T06:45:27.208Z,0.80
2019-03-10T06:49:32.898Z,1.10
2019-03-10T06:53:38.591Z,0.90
2019-03-10T06:57:44.263Z,0.67
2019-03-10T07:01:49.963Z,0.67
2019-03-10T07:05:55.649Z,0.60
2019-03-10T07:10:01.346Z,0.70
2019-03-10T07:14:07.180Z,0.70
2019-03-10T07:18:12.864Z,0.77
2019-03-10T07:22:18.593Z,1.22
2019-03-10T07:26:24.288Z,0.60
2019-03-10T07:35:36.928Z,0.50
2019-03-10T07:39:46.986Z,0.50
2019-03-10T07:44:02.745Z,0.90
2019-03-10T07:48:16.162Z,0.80
2019-03-10T07:52:26.604Z,0.97
2019-03-10T07:56:33.936Z,0.70
2019-03-10T08:00:41.273Z,1.07
2019-03-10T08:05:03.744Z,0.40
2019-03-10T08:09:13.860Z,0.63
2019-03-10T08:13:36.269Z,0.30
2019-03-10T08:17:52.395Z,0.30
2019-03-10T08:22:15.818Z,0.97
2019-03-10T08:26:23.128Z,0.30
2019-03-10T08:30:48.049Z,0.30
2019-03-10T08:35:11.758Z,1.73
2019-03-10T08:39:21.575Z,0.33
2019-03-10T08:43:31.868Z,0.90
2019-03-10T08:47:41.671Z,0.47
2019-03-10T08:51:49.086Z,0.40
2019-03-10T08:56:02.074Z,0.57
2019-03-10T09:00:32.347Z,0.30
2019-03-10T09:04:37.815Z,0.00
2019-03-10T09:09:01.048Z,0.10
2019-03-10T09:13:12.964Z,0.60
2019-03-10T09:17:26.075Z,0.30
2019-03-10T09:21:45.402Z,0.63
2019-03-10T09:25:55.392Z,0.30
2019-03-10T09:30:19.040Z,0.30
2019-03-10T09:34:42.464Z,0.47
2019-03-10T09:39:05.861Z,0.50
2019-03-10T09:43:20.574Z,0.50
2019-03-10T09:47:31.036Z,1.17
2019-03-10T09:51:47.190Z,0.30
2019-03-10T09:56:07.731Z,0.30
2019-03-10T10:00:23.486Z,0.40
2019-03-10T10:04:33.547Z,0.70
2019-03-10T10:08:45.343Z,0.40
2019-03-10T10:13:04.871Z,0.40
2019-03-10T10:17:24.366Z,0.60
2019-03-10T10:21:35.626Z,0.43
2019-03-10T10:25:43.753Z,0.33
2019-03-10T10:30:07.234Z,0.57
2019-03-10T10:34:24.827Z,0.60
2019-03-10T10:38:44.055Z,0.90
2019-03-10T10:43:07.551Z,0.10
2019-03-10T10:47:14.869Z,0.40
2019-03-10T10:51:31.275Z,0.20
2019-03-10T10:55:38.624Z,0.10
2019-03-10T10:59:54.887Z,0.20
2019-03-10T11:04:17.249Z,0.13
2019-03-10T11:08:24.661Z,0.20
2019-03-10T11:12:37.728Z,0.90
2019-03-10T11:16:55.378Z,0.30
2019-03-10T11:21:05.445Z,0.23
2019-03-10T11:25:12.869Z,0.17
2019-03-10T11:29:20.217Z,0.50
2019-03-10T11:33:28.638Z,0.50
2019-03-10T11:37:38.719Z,1.20
2019-03-10T11:41:48.148Z,0.30
2019-03-10T11:45:58.256Z,0.30
2019-03-10T11:50:16.904Z,0.30
2019-03-10T11:54:36.500Z,0.20
2019-03-10T11:58:46.990Z,0.30
2019-03-10T12:02:57.007Z,0.30
2019-03-10T12:07:19.252Z,0.30
2019-03-10T12:11:25.043Z,0.30
2019-03-10T12:15:30.727Z,0.40
2019-03-10T12:19:36.421Z,0.20
2019-03-10T12:23:42.180Z,0.60
2019-03-10T12:27:47.909Z,0.83
2019-03-10T12:31:54.757Z,0.37
2019-03-10T12:36:00.693Z,0.33
2019-03-10T12:40:19.256Z,0.23
2019-03-10T12:44:24.994Z,0.33
2019-03-10T12:48:30.699Z,0.20
2019-03-10T12:52:36.405Z,0.30
2019-03-10T12:56:42.080Z,0.60
2019-03-10T13:00:50.986Z,0.30
2019-03-10T13:04:56.770Z,0.30
2019-03-10T13:09:02.604Z,0.60
2019-03-10T13:13:18.834Z,0.67
2019-03-10T13:17:24.535Z,1.60
2019-03-10T13:21:30.364Z,0.73
2019-03-10T13:25:36.153Z,0.60
2019-03-10T13:29:41.927Z,0.60
2019-03-10T13:33:47.676Z,0.70
2019-03-10T13:37:53.402Z,1.63
2019-03-10T13:42:16.970Z,1.90
2019-03-10T13:46:22.701Z,0.93
2019-03-10T13:50:28.552Z,1.77
2019-03-10T13:54:34.250Z,1.03
2019-03-10T13:58:40.132Z,1.50
2019-03-10T14:02:45.885Z,2.70
2019-03-10T14:06:51.639Z,5.20
2019-03-10T14:10:59.303Z,5.30
2019-03-10T14:15:09.402Z,1.43
2019-03-10T14:19:15.117Z,2.53
2019-03-10T14:23:20.830Z,2.10
2019-03-10T14:34:02.917Z,2.23
2019-03-10T14:43:19.723Z,1.83
2019-03-10T14:48:16.522Z,2.30
2019-03-10T14:52:28.228Z,6.47
2019-03-10T14:57:18.825Z,6.03
2019-03-10T15:01:24.542Z,1.97
2019-03-10T15:06:18.395Z,2.20
2019-03-10T15:10:24.594Z,2.80
2019-03-10T15:14:30.290Z,2.93
2019-03-10T15:18:36.004Z,5.10
2019-03-10T15:22:41.955Z,2.30
2019-03-10T15:26:47.763Z,3.07
2019-03-10T15:30:53.664Z,3.57
2019-03-10T15:35:00.310Z,4.80
2019-03-10T15:39:07.226Z,4.33
2019-03-10T15:43:13.917Z,4.63
2019-03-10T15:47:19.623Z,5.03
2019-03-10T15:51:25.411Z,4.17
2019-03-10T15:55:31.144Z,3.53
2019-03-10T15:59:36.861Z,3.90
2019-03-10T16:03:42.617Z,5.60
2019-03-10T16:07:48.385Z,4.93
2019-03-10T16:11:54.154Z,4.37
2019-03-10T16:16:01.179Z,3.00
2019-03-10T16:20:11.640Z,2.85
2019-03-10T16:24:17.373Z,4.40
2019-03-10T16:28:23.219Z,7.13
2019-03-10T16:32:30.620Z,4.53
2019-03-10T16:36:36.446Z,7.33
2019-03-10T16:40:42.157Z,5.27
2019-03-10T16:44:47.848Z,5.30
2019-03-10T16:48:53.753Z,5.00
2019-03-10T16:52:59.552Z,3.73
2019-03-10T16:57:05.481Z,6.67
2019-03-10T17:01:14.292Z,5.80
2019-03-10T17:05:22.746Z,4.43
2019-03-10T17:09:28.462Z,3.40
2019-03-10T17:13:34.255Z,4.50
2019-03-10T17:17:40.020Z,4.83
2019-03-10T17:21:45.736Z,5.83
2019-03-10T17:25:51.491Z,5.03
2019-03-10T17:29:57.204Z,3.73
2019-03-10T17:34:02.964Z,3.37
2019-03-10T17:38:08.750Z,4.47
2019-03-10T17:42:16.057Z,8.40
2019-03-10T17:46:21.790Z,6.73
2019-03-10T17:50:27.647Z,3.07
2019-03-10T17:54:33.331Z,3.53
2019-03-10T17:58:39.096Z,3.77
2019-03-10T18:02:44.800Z,5.33
2019-03-10T18:06:50.524Z,3.83
2019-03-10T18:10:56.400Z,3.72
2019-03-10T18:15:08.647Z,2.97
2019-03-10T18:19:09.524Z,4.37
2019-03-10T18:23:15.223Z,6.97
2019-03-10T18:27:20.950Z,4.87
2019-03-10T18:36:44.233Z,6.30
2019-03-10T18:40:49.994Z,4.30
2019-03-10T18:44:55.761Z,4.80
2019-03-10T18:49:01.500Z,5.77
2019-03-10T18:53:07.260Z,3.70
2019-03-10T18:57:19.682Z,2.90
2019-03-10T19:01:25.495Z,3.10
2019-03-10T19:05:31.232Z,4.03
2019-03-10T19:09:37.021Z,6.00
2019-03-10T19:13:42.746Z,4.50
2019-03-10T19:17:48.432Z,4.00
2019-03-10T19:26:20.464Z,4.10
2019-03-10T19:30:26.486Z,2.45
2019-03-10T19:34:32.232Z,5.00
2019-03-10T19:38:38.042Z,2.77
2019-03-10T19:42:43.871Z,4.23
2019-03-10T19:46:49.575Z,3.67
2019-03-10T19:50:55.402Z,3.37
2019-03-10T19:55:02.129Z,6.37
2019-03-10T19:59:08.921Z,5.67
2019-03-10T20:03:14.646Z,4.63
2019-03-10T20:07:20.393Z,4.27
2019-03-10T20:11:26.078Z,4.87
2019-03-10T20:15:31.788Z,4.60
2019-03-10T20:19:37.484Z,3.77
2019-03-10T20:23:43.296Z,4.60
2019-03-10T20:27:49.047Z,3.40
2019-03-10T20:31:54.912Z,3.60
2019-03-10T20:36:00.626Z,5.90
2019-03-10T20:40:22.926Z,4.83
2019-03-10T20:44:28.612Z,6.23
2019-03-10T20:48:34.342Z,5.58
2019-03-10T20:52:40.108Z,5.53
2019-03-10T20:56:45.817Z,4.77
2019-03-10T21:00:51.657Z,6.40
2019-03-10T21:04:57.490Z,5.57
2019-03-10T21:09:03.810Z,5.17
2019-03-10T21:13:11.135Z,5.47
2019-03-10T21:17:16.841Z,6.53
2019-03-10T21:21:22.567Z,8.13
2019-03-10T21:25:31.049Z,2.50
2019-03-10T21:29:36.770Z,6.13
2019-03-10T21:33:42.487Z,3.27
2019-03-10T21:37:49.225Z,5.30
2019-03-10T21:41:55.076Z,3.67
2019-03-10T21:46:04.600Z,4.13
2019-03-10T21:50:18.400Z,5.27
2019-03-10T21:54:24.155Z,5.40
2019-03-10T21:58:29.861Z,7.33
2019-03-10T22:02:35.554Z,2.40
2019-03-10T22:06:41.278Z,5.17
2019-03-10T22:10:46.937Z,5.60
2019-03-10T22:14:52.661Z,6.07
2019-03-10T22:18:59.974Z,5.10
2019-03-10T22:23:05.743Z,5.40
2019-03-10T22:27:11.405Z,8.10
2019-03-10T22:31:17.221Z,4.10
2019-03-10T22:35:22.929Z,3.43
2019-03-10T22:39:28.613Z,7.00
2019-03-10T22:43:34.333Z,5.10
2019-03-10T22:47:40.008Z,4.43
2019-03-10T22:51:46.676Z,5.57
2019-03-10T22:55:52.458Z,5.17
2019-03-10T23:06:16.529Z,4.47
2019-03-10T23:10:22.232Z,6.97
2019-03-10T23:15:15.874Z,4.33
2019-03-10T23:19:21.547Z,6.50
2019-03-10T23:24:18.184Z,9.07
2019-03-10T23:28:23.875Z,4.87
2019-03-10T23:33:17.535Z,7.63
2019-03-10T23:37:23.219Z,5.57
2019-03-10T23:42:17.057Z,5.47
2019-03-10T23:46:22.758Z,5.43
2019-03-10T23:51:15.975Z,5.05
2019-03-10T23:55:21.805Z,6.03
2019-03-10T23:59:27.499Z,7.70
